メインページ
METAR-TAF:

METAR-TAF

空港 :

ナタール, リオグランデ・ド・ノルテ州, ブラジル

緯度: 05-46-05S, 経度: 035-22-34W, 海抜: 88m

現時点の気象観測

当レポートは2時間39分前の02:00(UTC)に作成
の風 3kt、南/南東から南西の間で変化する
気温 25°C
湿度 83%
気圧 1014 hPa
視程10km以上
高度1900ftの雲はほとんどない

METAR: SBSG 170200Z 19003KT 160V220 9999 FEW019 25/22 Q1014

時間: 01:39 (04:39 UTC)

予報

当レポートは6時間39分前の22:00(UTC)に作成
予報は17日の 00時(UTC)から 17日の 24時(UTC)まで有効
の風 7kt
視程10km以上
高度2500ftの雲は散在している
17日の 02時(UTC)から 17日の 04時(UTC)まで徐々に
南西の風 4kt
17日の 09時(UTC)から 17日の 11時(UTC)まで徐々に
南/南東の風 13kt
高度2000ftの千切れ雲あり
17日の 16時(UTC)から 17日の 18時(UTC)まで徐々に
高度2000ftの雲は散在している
17日の 20時(UTC)から 17日の 21時(UTC)まで徐々に
南/南東の風 7kt

TAF: SBSG 162200Z 1700/1724 19007KT 9999 SCT025 TN23/1708Z TX31/1716Z BECMG 1702/1704 22004KT BECMG 1709/1711 16013KT BKN020 BECMG 1716/1718 SCT020 BECMG 1720/1721 16007KT RMK PEI

4,000以上の空港の気象観測と天気予報(METAR報とTAF報)

利用可能な観測所は地図上に黄色い丸と赤い丸で示す。

丸の上にカーソルを重ねると観測所名を参照できる。

次にクリックすると気象観測と天気予報を参照できる。

マップの切り替え:黒色「×」印の緑ボタンをクリックして拡大、「-」印の緑ボタンをクリックして縮小、緑色の三角印をクリックして隣りの地図に切り替え


METAR-TAF: